CheckWX is a tool to help pilots better visualize weather data.  It is not intended as a substitute for an official pre-flight weather briefing.

12:42:36 UTC

14Y METAR
Todd Field Airport
Long Prairie, Minnesota, USA
Current

8 mins ago

K14Y 201235Z AUTO 30005KT 10SM CLR 05/03 A3014 RMK AO2
Observed
May-20 @ 12:35 UTC
Wind
  • 300° at 5 KTS
Visibility
10 SM
Flight Rules
VFR
Cloud Levels
  • Clear skies
Temperature
C / 41°F
Dewpoint
C / 37°F
Humidity
87%
Altimeter
30.14" Hg
Pressure
1020.62 hPa
Previous

28 mins ago

K14Y 201215Z AUTO 33004KT 10SM CLR 04/03 A3014 RMK AO2
Observed
May-20 @ 12:15 UTC
Wind
  • 330° at 4 KTS
Visibility
10 SM
Flight Rules
VFR
Cloud Levels
  • Clear skies
Temperature
C / 39°F
Dewpoint
C / 37°F
Humidity
93%
Altimeter
30.14" Hg
Pressure
1020.62 hPa
Previous

48 mins ago

K14Y 201155Z AUTO 33004KT 10SM CLR 03/02 A3013 RMK AO2
Observed
May-20 @ 11:55 UTC
Wind
  • 330° at 4 KTS
Visibility
10 SM
Flight Rules
VFR
Cloud Levels
  • Clear skies
Temperature
C / 37°F
Dewpoint
C / 36°F
Humidity
93%
Altimeter
30.13" Hg
Pressure
1020.32 hPa